• Join FlightAware (Why Join?)
  • Login
  • US Flag 
12:41AM EDT


 

Airport Tracker/Info


-or-


 

Live Flight TrackerFlight Track Log ✈ AWE3794 ✈ 16-Apr-2013 ✈ KCLE - KPHL

Flight Track Log - Related Links

Times and Time Zones

All times are in EDT time to prevent confusion due to time zone crossing. See the AWE3794 flight status page for this flight to view local times or setup timezone preferences in your user account.

Time Position Orientation Groundspeed Altitude Reporting Facility
EDT Latitude Longitude Course Direction KTS MPH feet Rate Location/Type
09:51AM 41.3897 -81.8811 118° Southeast 155 178 2,000  Level Cleveland Center
09:52AM 41.3439 -81.8803 179° South 186 214 4,000 1,980 Climbing Cleveland Center
09:53AM 41.3189 -81.8769 174° South 205 236 5,000 2,340 Climbing Cleveland Center
09:53AM 41.2856 -81.8764 179° South 215 247 6,400 2,460 Climbing Cleveland Center
09:54AM 41.2606 -81.8731 174° South 212 244 7,500 2,340 Climbing Cleveland Center
09:55AM 41.1830 -81.3827 124° Southeast  Level FlightAware Approximate
09:55AM 41.2025 -81.8608 171° South 240 276 9,900  Level Cleveland Center
09:56AM 41.1270 -81.2674 118° Southeast  Level FlightAware Approximate
09:56AM 41.1486 -81.8075 143° Southeast 234 269 11,700  Level Cleveland Center
09:57AM 41.1039 -81.7183 124° Southeast 253 291 13,400 1,560 Climbing Cleveland Center
09:58AM 41.0717 -81.6050 111° Southeast 303 349 14,900 1,500 Climbing Cleveland Center
09:59AM 41.0331 -81.4750 111° Southeast 336 387 16,500 1,440 Climbing Cleveland Center
10:00AM 41.0006 -81.3481 109° East 352 405 17,800 1,260 Climbing Cleveland Center
10:01AM 40.9658 -81.2156 109° East 364 419 19,100 1,440 Climbing Cleveland Center
10:02AM 40.9333 -81.0833 108° East 374 430 20,700 1,380 Climbing Cleveland Center
10:03AM 40.9025 -80.9622 109° East 380 437 21,900 1,080 Climbing Cleveland Center
10:04AM 40.8675 -80.8219 108° East 391 450 22,900 1,140 Climbing Cleveland Center
10:05AM 40.8217 -80.6653 111° Southeast 404 465 24,200 1,020 Climbing Cleveland Center
10:06AM 40.7800 -80.5172 110° East 416 479 25,000 360 Climbing Cleveland Center
10:07AM 40.7444 -80.3747 108° East 416 479 25,000  Level Cleveland Center
10:08AM 40.7044 -80.2353 111° Southeast 409 471 25,000  Level Cleveland Center
10:09AM 40.6686 -80.0931 108° East 409 471 25,000  Level Cleveland Center
10:10AM 40.6325 -79.9483 108° East 409 471 25,000  Level Cleveland Center
10:11AM 40.6147 -79.8036 99° East 403 464 25,000  Level Cleveland Center
10:12AM 40.6011 -79.6506 97° East 403 464 25,000  Level Cleveland Center
10:13AM 40.5853 -79.5006 98° East 409 471 25,000  Level Cleveland Center
10:14AM 40.5692 -79.3531 98° East 409 471 25,000  Level Cleveland Center
10:15AM 40.5531 -79.2222 99° East 409 471 25,000  Level Cleveland Center
10:16AM 40.5367 -79.0778 98° East 409 471 25,000  Level Cleveland Center
10:17AM 40.5222 -78.9306 97° East 409 471 25,000  Level Cleveland Center
10:18AM 40.5053 -78.7836 99° East 409 471 25,000  Level Cleveland Center
10:19AM 40.4883 -78.6392 99° East 409 471 25,000  Level Cleveland Center
10:21AM 40.4519 -78.3161 98° East 415 478 25,000  Level New York Center
10:22AM 40.4361 -78.1697 98° East 410 472 25,000  Level New York Center
10:23AM 40.4139 -78.0228 101° East 410 472 25,000  Level New York Center
10:24AM 40.3908 -77.8894 103° East 410 472 25,000 -300 Level New York Center
10:25AM 40.3681 -77.7453 102° East 410 472 24,500 -840 Descending New York Center
10:26AM 40.3450 -77.6067 102° East 404 465 23,400 -1,080 Descending New York Center
10:27AM 40.3217 -77.4683 102° East 397 457 22,400 -1,020 Descending New York Center
10:28AM 40.2983 -77.3272 102° East 397 457 21,400 -1,020 Descending New York Center
10:29AM 40.2711 -77.1750 103° East 397 457 20,400 -1,020 Descending New York Center
10:30AM 40.2472 -77.0394 103° East 392 451 19,400 -1,080 Descending New York Center
10:31AM 40.2272 -76.9044 101° East 387 445 18,300 -1,200 Descending New York Center
10:32AM 40.2061 -76.7856 103° East 377 434 17,100 -1,380 Descending New York Center
10:33AM 40.1836 -76.6561 103° East 367 422 15,600 -1,680 Descending New York Center
10:34AM 40.1608 -76.5236 103° East 343 395 13,800 -1,680 Descending New York Center
10:35AM 40.1414 -76.4108 103° East 332 382 12,200 -1,560 Descending New York Center
10:36AM 40.1214 -76.3006 103° East 320 368 10,700 -1,140 Descending New York Center
10:37AM 40.1139 -76.1967 95° East 315 362 10,000 -480 Descending New York Center
10:37AM 40.1100 -76.1392 95° East 312 359 10,100 120 Climbing FAA TRACON SMA TRACON (SMA)
10:37AM 40.1083 -76.0983 93° East 311 358 10,100  Level FAA TRACON SMA TRACON (SMA)
10:38AM 40.1036 -76.0611 99° East 311 358 10,100  Level FAA TRACON SMA TRACON (SMA)
10:38AM 40.1017 -76.0275 94° East 309 356 10,100  Level FAA TRACON SMA TRACON (SMA)
10:38AM 40.0997 -75.9931 94° East 309 356 10,100 -840 Level FAA TRACON SMA TRACON (SMA)
10:39AM 40.0944 -75.9156 95° East 310 357 9,300 -1,320 Descending FAA TRACON SMA TRACON (SMA)
10:39AM 40.0925 -75.8781 94° East 309 356 8,800 -1,800 Descending FAA TRACON SMA TRACON (SMA)
10:40AM 40.0797 -75.8450 117° Southeast 283 326 8,100 -1,680 Descending FAA TRACON SMA TRACON (SMA)
10:40AM 40.0592 -75.8308 152° Southeast 266 306 7,700 -1,380 Descending FAA TRACON SMA TRACON (SMA)
10:40AM 40.0386 -75.8219 162° South 244 281 7,200 -1,980 Descending FAA TRACON SMA TRACON (SMA)
10:41AM 40.0125 -75.8114 163° South 252 290 6,400 -1,800 Descending FAA TRACON SMA TRACON (SMA)
10:41AM 39.9933 -75.8033 162° South 251 289 6,000 -600 Descending FAA TRACON SMA TRACON (SMA)
10:41AM 39.9728 -75.7950 163° South 238 274 6,000  Level FAA TRACON SMA TRACON (SMA)
10:42AM 39.9525 -75.7861 161° South 200 230 6,000  Level FAA TRACON SMA TRACON (SMA)
10:42AM 39.9372 -75.7794 162° South 183 211 6,000  Level FAA TRACON SMA TRACON (SMA)
10:42AM 39.9222 -75.7728 161° South 186 214 6,000  Level FAA TRACON SMA TRACON (SMA)
10:43AM 39.9033 -75.7647 162° South 188 216 6,000  Level FAA TRACON SMA TRACON (SMA)
10:43AM 39.8875 -75.7575 161° South 190 219 6,000 -480 Level FAA TRACON SMA TRACON (SMA)
10:43AM 39.8719 -75.7506 161° South 192 221 5,700 -1,080 Descending FAA TRACON SMA TRACON (SMA)
10:44AM 39.8525 -75.7419 161° South 191 220 5,300 -1,080 Descending FAA TRACON SMA TRACON (SMA)
10:44AM 39.8406 -75.7258 134° Southeast 198 228 5,000 -1,080 Descending FAA TRACON SMA TRACON (SMA)
10:44AM 39.8350 -75.7000 106° East 210 242 4,600 -1,080 Descending FAA TRACON SMA TRACON (SMA)
10:45AM 39.8306 -75.6758 103° East 209 241 4,300 -780 Descending FAA TRACON SMA TRACON (SMA)
10:45AM 39.8272 -75.6536 101° East 206 237 4,100 -480 Descending FAA TRACON SMA TRACON (SMA)
10:45AM 39.8242 -75.6314 100° East 205 236 4,000 -180 Descending FAA TRACON SMA TRACON (SMA)
10:46AM 39.8203 -75.6033 100° East 205 236 4,000  Level FAA TRACON SMA TRACON (SMA)
10:46AM 39.8172 -75.5822 101° East 204 235 4,000 -480 Level FAA TRACON SMA TRACON (SMA)
10:46AM 39.8156 -75.5614 96° East 190 219 3,700 -1,080 Descending FAA TRACON SMA TRACON (SMA)
10:47AM 39.8119 -75.5364 101° East 185 213 3,300 -1,080 Descending FAA TRACON SMA TRACON (SMA)
10:47AM 39.8131 -75.5153 86° East 192 221 3,000 -480 Descending FAA TRACON SMA TRACON (SMA)
10:47AM 39.8172 -75.4956 75° East 186 214 3,000  Level FAA TRACON SMA TRACON (SMA)
10:48AM 39.8208 -75.4706 79° East 193 222 3,000 -300 Level FAA TRACON SMA TRACON (SMA)
10:48AM 39.8253 -75.4486 75° East 193 222 2,800 -780 Descending FAA TRACON SMA TRACON (SMA)
10:48AM 39.8300 -75.4292 72° East 186 214 2,500 -900 Descending FAA TRACON SMA TRACON (SMA)